createdAt,value
2022-11-17T00:04:14.373Z,74.30
2022-11-17T00:09:18.013Z,74.46
2022-11-17T00:14:33.077Z,74.43
2022-11-17T00:19:55.487Z,74.43
2022-11-17T00:24:59.918Z,74.37
2022-11-17T00:30:03.911Z,74.31
2022-11-17T00:35:08.546Z,73.60
2022-11-17T00:40:13.185Z,73.61
2022-11-17T00:45:16.500Z,73.75
2022-11-17T00:50:19.707Z,73.57
2022-11-17T00:55:23.534Z,73.54
2022-11-17T01:00:27.148Z,73.70
2022-11-17T01:05:33.071Z,73.79
2022-11-17T01:10:36.955Z,73.65
2022-11-17T01:15:40.255Z,73.74
2022-11-17T01:20:43.465Z,73.35
2022-11-17T01:25:46.978Z,73.39
2022-11-17T01:30:50.216Z,73.78
2022-11-17T01:35:53.507Z,73.59
2022-11-17T01:41:03.002Z,73.92
2022-11-17T01:46:31.076Z,74.09
2022-11-17T01:51:40.271Z,74.21
2022-11-17T01:56:47.480Z,74.00
2022-11-17T02:01:58.665Z,74.21
2022-11-17T02:07:27.166Z,74.26
2022-11-17T02:12:33.847Z,74.21
2022-11-17T02:17:41.274Z,74.46
2022-11-17T02:23:21.695Z,74.34
2022-11-17T02:28:36.186Z,74.49
2022-11-17T02:34:18.648Z,74.50
2022-11-17T02:39:33.344Z,74.27
2022-11-17T02:44:57.441Z,74.56
2022-11-17T02:50:08.876Z,74.68
2022-11-17T02:55:12.685Z,74.57
2022-11-17T03:00:19.769Z,74.47
2022-11-17T03:05:44.169Z,74.82
2022-11-17T03:11:07.613Z,74.89
2022-11-17T03:16:51.630Z,75.00
2022-11-17T03:22:21.559Z,74.89
2022-11-17T03:27:34.809Z,74.78
2022-11-17T03:32:44.023Z,74.86
2022-11-17T03:37:54.700Z,74.83
2022-11-17T03:43:02.556Z,74.85
2022-11-17T03:48:27.401Z,74.61
2022-11-17T03:53:31.563Z,74.25
2022-11-17T03:58:46.186Z,74.14
2022-11-17T04:03:49.490Z,73.75
2022-11-17T04:08:52.614Z,73.01
2022-11-17T04:14:14.589Z,72.68
2022-11-17T04:19:17.746Z,72.79
2022-11-17T04:24:20.978Z,72.99
2022-11-17T04:29:24.105Z,72.94
2022-11-17T04:34:27.177Z,71.79
2022-11-17T04:39:30.274Z,71.87
2022-11-17T04:44:33.784Z,71.86
2022-11-17T04:49:36.803Z,72.18
2022-11-17T04:54:39.895Z,72.83
2022-11-17T04:59:42.910Z,73.20
2022-11-17T05:04:57.985Z,73.25
2022-11-17T05:10:01.745Z,73.07
2022-11-17T05:15:06.046Z,73.18
2022-11-17T05:20:10.238Z,73.50
2022-11-17T05:25:13.389Z,73.68
2022-11-17T05:30:16.591Z,74.09
2022-11-17T05:35:19.696Z,74.57
2022-11-17T05:40:22.903Z,74.61
2022-11-17T05:45:26.009Z,74.92
2022-11-17T05:50:29.021Z,75.03
2022-11-17T05:55:32.222Z,74.93
2022-11-17T06:00:39.645Z,74.88
2022-11-17T06:05:44.451Z,75.11
2022-11-17T06:10:47.580Z,75.22
2022-11-17T06:15:50.790Z,75.27
2022-11-17T06:20:54.954Z,75.57
2022-11-17T06:26:01.624Z,75.49
2022-11-17T06:31:06.924Z,74.50
2022-11-17T06:36:10.386Z,74.00
2022-11-17T06:41:13.393Z,73.83
2022-11-17T06:46:16.923Z,73.74
2022-11-17T06:51:20.010Z,73.69
2022-11-17T06:56:24.162Z,73.56
2022-11-17T07:01:27.261Z,73.50
2022-11-17T07:06:30.461Z,73.07
2022-11-17T07:11:38.772Z,72.50
2022-11-17T07:16:43.708Z,72.75
2022-11-17T07:21:46.774Z,72.75
2022-11-17T07:26:49.844Z,72.77
2022-11-17T07:31:53.054Z,72.67
2022-11-17T07:36:56.262Z,72.52
2022-11-17T07:41:59.372Z,72.97
2022-11-17T07:47:02.677Z,72.86
2022-11-17T07:52:05.790Z,73.11
2022-11-17T07:57:09.094Z,72.74
2022-11-17T08:02:12.814Z,72.43
2022-11-17T08:07:16.010Z,72.11
2022-11-17T08:12:19.354Z,71.61
2022-11-17T08:17:23.180Z,72.08
2022-11-17T08:22:26.466Z,71.78
2022-11-17T08:27:29.591Z,71.50
2022-11-17T08:32:32.788Z,71.02
2022-11-17T08:37:35.988Z,70.63
2022-11-17T08:42:39.922Z,70.07
2022-11-17T08:47:43.023Z,70.24
2022-11-17T08:52:46.446Z,70.32
2022-11-17T08:57:49.857Z,70.27
2022-11-17T09:02:52.956Z,70.12
2022-11-17T09:08:05.973Z,69.51
2022-11-17T09:13:19.670Z,68.29
2022-11-17T09:18:22.762Z,67.92
2022-11-17T09:23:26.062Z,68.39
2022-11-17T09:28:29.171Z,68.53
2022-11-17T09:33:32.289Z,67.43
2022-11-17T09:38:38.122Z,67.96
2022-11-17T09:43:57.766Z,67.82
2022-11-17T09:50:05.669Z,68.39
2022-11-17T09:55:08.776Z,67.54
2022-11-17T10:00:26.217Z,68.10
2022-11-17T10:05:35.353Z,67.13
2022-11-17T10:10:50.992Z,67.06
2022-11-17T10:16:00.250Z,67.53
2022-11-17T10:21:06.937Z,68.26
2022-11-17T10:26:14.342Z,67.79
2022-11-17T10:31:19.969Z,66.95
2022-11-17T10:36:31.295Z,66.92
2022-11-17T10:41:45.436Z,67.55
2022-11-17T10:47:02.043Z,68.17
2022-11-17T10:52:09.172Z,66.93
2022-11-17T10:57:21.808Z,65.81
2022-11-17T11:02:39.255Z,65.18
2022-11-17T11:08:21.585Z,64.93
2022-11-17T11:14:00.300Z,64.56
2022-11-17T11:19:03.645Z,64.14
2022-11-17T11:24:35.096Z,64.85
2022-11-17T11:30:09.934Z,65.39
2022-11-17T11:35:50.934Z,65.37
2022-11-17T11:41:15.305Z,65.68
2022-11-17T11:46:26.681Z,64.89
2022-11-17T11:51:37.520Z,62.99
2022-11-17T11:56:48.312Z,63.54
2022-11-17T12:02:14.164Z,62.56
2022-11-17T12:07:31.555Z,63.47
2022-11-17T12:12:39.956Z,64.56
2022-11-17T12:17:52.441Z,64.33
2022-11-17T12:23:18.917Z,64.03
2022-11-17T12:28:30.404Z,66.46
2022-11-17T12:33:52.158Z,66.64
2022-11-17T12:38:56.586Z,66.36
2022-11-17T12:44:38.228Z,65.12
2022-11-17T12:50:03.760Z,66.21
2022-11-17T12:55:33.350Z,66.21
2022-11-17T13:01:11.770Z,65.07
2022-11-17T13:06:35.078Z,65.57
2022-11-17T13:11:39.809Z,66.44
2022-11-17T13:16:51.719Z,65.50
2022-11-17T13:22:11.132Z,65.21
2022-11-17T13:27:32.140Z,66.40
2022-11-17T13:32:40.769Z,66.68
2022-11-17T13:37:44.503Z,65.64
2022-11-17T13:42:49.798Z,66.54
2022-11-17T13:47:54.552Z,67.19
2022-11-17T13:53:11.286Z,68.09
2022-11-17T13:58:38.068Z,68.42
2022-11-17T14:03:43.929Z,68.11
2022-11-17T14:09:05.591Z,68.32
2022-11-17T14:14:15.356Z,68.44
2022-11-17T14:19:18.700Z,68.89
2022-11-17T14:24:21.879Z,69.59
2022-11-17T14:29:26.207Z,69.96
2022-11-17T14:34:29.555Z,70.27
2022-11-17T14:39:32.725Z,70.41
2022-11-17T14:44:35.930Z,70.68
2022-11-17T14:49:39.210Z,71.10
2022-11-17T14:54:42.353Z,71.38
2022-11-17T14:59:45.460Z,72.38
2022-11-17T15:04:50.988Z,72.10
2022-11-17T15:09:55.462Z,72.54
2022-11-17T15:14:58.791Z,72.61
2022-11-17T15:20:02.345Z,73.10
2022-11-17T15:25:07.089Z,73.21
2022-11-17T15:30:11.087Z,72.85
2022-11-17T15:35:14.380Z,73.82
2022-11-17T15:40:19.515Z,74.30
2022-11-17T15:45:23.040Z,74.21
2022-11-17T15:50:29.126Z,74.47
2022-11-17T15:55:35.490Z,74.45
2022-11-17T16:00:40.583Z,74.97
2022-11-17T16:05:43.966Z,75.39
2022-11-17T16:10:47.275Z,75.86
2022-11-17T16:15:51.384Z,76.18
2022-11-17T16:20:55.510Z,76.64
2022-11-17T16:26:01.919Z,77.04
2022-11-17T16:31:36.197Z,77.12
2022-11-17T16:36:41.691Z,77.20
2022-11-17T16:41:46.058Z,77.34
2022-11-17T16:46:50.103Z,77.20
2022-11-17T16:51:56.984Z,77.06
2022-11-17T16:57:00.124Z,76.98
2022-11-17T17:02:04.113Z,77.13
2022-11-17T17:07:07.253Z,77.38
2022-11-17T17:12:10.630Z,77.58
2022-11-17T17:17:13.884Z,77.96
2022-11-17T17:22:17.389Z,78.14
2022-11-17T17:27:20.669Z,78.40
2022-11-17T17:32:23.775Z,78.71
2022-11-17T17:37:26.878Z,78.93
2022-11-17T17:42:30.083Z,79.10
2022-11-17T17:47:33.292Z,79.31
2022-11-17T17:52:36.399Z,79.61
2022-11-17T17:57:40.973Z,79.68
2022-11-17T18:02:44.405Z,79.71
2022-11-17T18:07:47.674Z,79.86
2022-11-17T18:12:51.000Z,79.65
2022-11-17T18:17:54.300Z,79.79
2022-11-17T18:22:57.497Z,80.29
2022-11-17T18:28:00.808Z,80.20
2022-11-17T18:33:04.034Z,80.21
2022-11-17T18:38:07.341Z,80.21
2022-11-17T18:43:10.743Z,80.36
2022-11-17T18:48:14.256Z,80.44
2022-11-17T18:53:17.369Z,80.96
2022-11-17T18:58:20.579Z,81.19
2022-11-17T19:03:26.033Z,81.21
2022-11-17T19:08:31.431Z,81.25
2022-11-17T19:13:37.526Z,81.31
2022-11-17T19:18:45.195Z,81.43
2022-11-17T19:23:52.071Z,81.79
2022-11-17T19:28:58.610Z,81.90
2022-11-17T19:34:01.774Z,82.25
2022-11-17T19:39:05.897Z,82.73
2022-11-17T19:44:09.947Z,83.06
2022-11-17T19:49:13.997Z,83.20
2022-11-17T19:54:17.982Z,83.35
2022-11-17T19:59:21.598Z,83.01
2022-11-17T20:04:25.096Z,83.06
2022-11-17T20:09:28.323Z,83.18
2022-11-17T20:14:31.734Z,83.17
2022-11-17T20:19:35.255Z,83.47
2022-11-17T20:24:38.371Z,83.51
2022-11-17T20:29:41.502Z,83.35
2022-11-17T20:34:44.674Z,83.21
2022-11-17T20:39:48.011Z,83.27
2022-11-17T20:44:51.297Z,83.26
2022-11-17T20:49:55.631Z,83.21
2022-11-17T20:54:58.838Z,83.11
2022-11-17T21:00:02.163Z,83.18
2022-11-17T21:05:07.486Z,83.17
2022-11-17T21:10:10.724Z,82.54
2022-11-17T21:15:14.031Z,81.89
2022-11-17T21:20:17.438Z,81.60
2022-11-17T21:25:20.755Z,81.58
2022-11-17T21:30:23.855Z,81.67
2022-11-17T21:35:27.170Z,81.78
2022-11-17T21:40:31.300Z,81.74
2022-11-17T21:45:34.736Z,81.71
2022-11-17T21:50:37.818Z,81.81
2022-11-17T21:55:41.047Z,81.70
2022-11-17T22:00:44.259Z,81.40
2022-11-17T22:05:47.455Z,80.83
2022-11-17T22:10:50.767Z,80.62
2022-11-17T22:15:54.190Z,80.53
2022-11-17T22:20:57.579Z,80.48
2022-11-17T22:26:05.216Z,80.59
2022-11-17T22:31:10.141Z,79.98
2022-11-17T22:36:13.566Z,79.76
2022-11-17T22:41:17.785Z,79.45
2022-11-17T22:46:24.053Z,79.74
2022-11-17T22:51:45.652Z,79.99
2022-11-17T22:56:49.224Z,80.05
2022-11-17T23:01:52.435Z,79.83
2022-11-17T23:06:55.700Z,79.31
2022-11-17T23:11:59.263Z,79.22
2022-11-17T23:17:02.371Z,78.75
2022-11-17T23:22:05.574Z,78.64
2022-11-17T23:27:08.689Z,78.89
2022-11-17T23:32:11.989Z,79.00
2022-11-17T23:37:14.994Z,79.18
2022-11-17T23:42:18.036Z,79.49
2022-11-17T23:47:21.205Z,79.76
2022-11-17T23:52:24.441Z,79.46
2022-11-17T23:57:27.725Z,78.85
